sensor_id;sensor_type;location;lat;lon;timestamp;temperature;humidity
53268;DHT22;39156;51.176;6.738;2023-03-02T00:02:25;2.00;54.70
53268;DHT22;39156;51.176;6.738;2023-03-02T00:04:55;2.00;54.70
53268;DHT22;39156;51.176;6.738;2023-03-02T00:07:26;1.90;55.00
53268;DHT22;39156;51.176;6.738;2023-03-02T00:09:56;2.00;55.00
53268;DHT22;39156;51.176;6.738;2023-03-02T00:12:23;1.90;54.90
53268;DHT22;39156;51.176;6.738;2023-03-02T00:14:51;1.90;55.00
53268;DHT22;39156;51.176;6.738;2023-03-02T00:17:17;1.80;55.00
53268;DHT22;39156;51.176;6.738;2023-03-02T00:19:42;1.80;55.00
53268;DHT22;39156;51.176;6.738;2023-03-02T00:22:09;1.80;55.10
53268;DHT22;39156;51.176;6.738;2023-03-02T00:24:34;1.80;55.20
53268;DHT22;39156;51.176;6.738;2023-03-02T00:27:00;1.80;55.30
53268;DHT22;39156;51.176;6.738;2023-03-02T00:29:26;1.70;55.30
53268;DHT22;39156;51.176;6.738;2023-03-02T00:31:52;1.80;55.50
53268;DHT22;39156;51.176;6.738;2023-03-02T00:34:17;1.70;55.50
53268;DHT22;39156;51.176;6.738;2023-03-02T00:36:43;1.70;55.60
53268;DHT22;39156;51.176;6.738;2023-03-02T00:39:09;1.70;55.70
53268;DHT22;39156;51.176;6.738;2023-03-02T00:41:34;1.70;55.70
53268;DHT22;39156;51.176;6.738;2023-03-02T00:44:00;1.60;55.60
53268;DHT22;39156;51.176;6.738;2023-03-02T00:46:26;1.60;55.60
53268;DHT22;39156;51.176;6.738;2023-03-02T00:48:52;1.60;55.60
53268;DHT22;39156;51.176;6.738;2023-03-02T00:51:18;1.60;55.70
53268;DHT22;39156;51.176;6.738;2023-03-02T00:53:44;1.60;55.80
53268;DHT22;39156;51.176;6.738;2023-03-02T00:56:10;1.50;55.80
53268;DHT22;39156;51.176;6.738;2023-03-02T00:58:36;1.60;55.90
53268;DHT22;39156;51.176;6.738;2023-03-02T01:01:11;1.60;56.00
53268;DHT22;39156;51.176;6.738;2023-03-02T01:03:37;1.50;56.10
53268;DHT22;39156;51.176;6.738;2023-03-02T01:06:04;1.50;55.90
53268;DHT22;39156;51.176;6.738;2023-03-02T01:08:30;1.50;55.90
53268;DHT22;39156;51.176;6.738;2023-03-02T01:10:55;1.60;56.00
53268;DHT22;39156;51.176;6.738;2023-03-02T01:13:21;1.50;55.90
53268;DHT22;39156;51.176;6.738;2023-03-02T01:15:47;1.50;55.90
53268;DHT22;39156;51.176;6.738;2023-03-02T01:18:13;1.40;56.00
53268;DHT22;39156;51.176;6.738;2023-03-02T01:20:39;1.50;56.30
53268;DHT22;39156;51.176;6.738;2023-03-02T01:23:05;1.40;56.30
53268;DHT22;39156;51.176;6.738;2023-03-02T01:25:30;1.50;56.40
53268;DHT22;39156;51.176;6.738;2023-03-02T01:27:56;1.40;56.30
53268;DHT22;39156;51.176;6.738;2023-03-02T01:30:22;1.50;56.60
53268;DHT22;39156;51.176;6.738;2023-03-02T01:32:48;1.40;56.60
53268;DHT22;39156;51.176;6.738;2023-03-02T01:35:13;1.40;56.60
53268;DHT22;39156;51.176;6.738;2023-03-02T01:37:39;1.40;56.60
53268;DHT22;39156;51.176;6.738;2023-03-02T01:40:06;1.40;56.70
53268;DHT22;39156;51.176;6.738;2023-03-02T01:42:36;1.30;56.60
53268;DHT22;39156;51.176;6.738;2023-03-02T01:45:03;1.30;56.70
53268;DHT22;39156;51.176;6.738;2023-03-02T01:47:36;1.40;56.80
53268;DHT22;39156;51.176;6.738;2023-03-02T01:50:17;1.30;57.00
53268;DHT22;39156;51.176;6.738;2023-03-02T01:52:45;1.30;57.10
53268;DHT22;39156;51.176;6.738;2023-03-02T01:55:14;1.30;56.90
53268;DHT22;39156;51.176;6.738;2023-03-02T01:57:45;1.20;57.00
53268;DHT22;39156;51.176;6.738;2023-03-02T02:00:27;1.30;57.30
53268;DHT22;39156;51.176;6.738;2023-03-02T02:02:58;1.20;57.80
53268;DHT22;39156;51.176;6.738;2023-03-02T02:05:36;1.10;57.80
53268;DHT22;39156;51.176;6.738;2023-03-02T02:08:03;1.20;58.00
53268;DHT22;39156;51.176;6.738;2023-03-02T02:10:30;1.20;58.20
53268;DHT22;39156;51.176;6.738;2023-03-02T02:12:56;1.00;58.70
53268;DHT22;39156;51.176;6.738;2023-03-02T02:15:22;1.10;58.80
53268;DHT22;39156;51.176;6.738;2023-03-02T02:17:48;1.10;59.00
53268;DHT22;39156;51.176;6.738;2023-03-02T02:28:45;0.90;59.50
53268;DHT22;39156;51.176;6.738;2023-03-02T02:31:21;0.90;59.10
53268;DHT22;39156;51.176;6.738;2023-03-02T02:33:58;0.80;58.90
53268;DHT22;39156;51.176;6.738;2023-03-02T02:36:31;0.90;58.80
53268;DHT22;39156;51.176;6.738;2023-03-02T02:39:02;0.80;58.60
53268;DHT22;39156;51.176;6.738;2023-03-02T02:41:33;0.90;58.70
53268;DHT22;39156;51.176;6.738;2023-03-02T02:44:01;0.80;58.90
53268;DHT22;39156;51.176;6.738;2023-03-02T02:46:27;0.70;59.00
53268;DHT22;39156;51.176;6.738;2023-03-02T02:48:53;0.70;59.00
53268;DHT22;39156;51.176;6.738;2023-03-02T02:51:22;0.70;59.10
53268;DHT22;39156;51.176;6.738;2023-03-02T02:54:03;0.60;59.30
53268;DHT22;39156;51.176;6.738;2023-03-02T02:56:35;0.60;59.90
53268;DHT22;39156;51.176;6.738;2023-03-02T02:59:22;0.60;59.90
53268;DHT22;39156;51.176;6.738;2023-03-02T03:01:50;0.50;59.90
53268;DHT22;39156;51.176;6.738;2023-03-02T03:04:25;0.70;59.90
53268;DHT22;39156;51.176;6.738;2023-03-02T03:07:04;0.50;60.30
53268;DHT22;39156;51.176;6.738;2023-03-02T03:09:31;0.60;60.60
53268;DHT22;39156;51.176;6.738;2023-03-02T03:12:03;0.50;60.40
53268;DHT22;39156;51.176;6.738;2023-03-02T03:14:41;0.50;60.60
53268;DHT22;39156;51.176;6.738;2023-03-02T03:17:07;0.60;60.40
53268;DHT22;39156;51.176;6.738;2023-03-02T03:19:37;0.60;60.50
53268;DHT22;39156;51.176;6.738;2023-03-02T03:22:05;0.50;60.50
53268;DHT22;39156;51.176;6.738;2023-03-02T03:24:32;0.40;60.70
53268;DHT22;39156;51.176;6.738;2023-03-02T03:26:59;0.60;60.90
53268;DHT22;39156;51.176;6.738;2023-03-02T03:29:27;0.50;60.90
53268;DHT22;39156;51.176;6.738;2023-03-02T03:31:55;0.50;61.10
53268;DHT22;39156;51.176;6.738;2023-03-02T03:34:22;0.40;61.00
53268;DHT22;39156;51.176;6.738;2023-03-02T03:36:49;0.50;61.10
53268;DHT22;39156;51.176;6.738;2023-03-02T03:39:16;0.40;61.10
53268;DHT22;39156;51.176;6.738;2023-03-02T03:41:42;0.40;61.20
53268;DHT22;39156;51.176;6.738;2023-03-02T03:44:08;0.50;61.20
53268;DHT22;39156;51.176;6.738;2023-03-02T03:46:34;0.40;60.70
53268;DHT22;39156;51.176;6.738;2023-03-02T03:49:00;0.40;61.00
53268;DHT22;39156;51.176;6.738;2023-03-02T03:51:26;0.40;61.10
53268;DHT22;39156;51.176;6.738;2023-03-02T03:53:52;0.40;61.10
53268;DHT22;39156;51.176;6.738;2023-03-02T03:56:29;0.40;61.20
53268;DHT22;39156;51.176;6.738;2023-03-02T03:58:58;0.40;61.30
53268;DHT22;39156;51.176;6.738;2023-03-02T04:01:47;0.40;61.20
53268;DHT22;39156;51.176;6.738;2023-03-02T04:04:19;0.30;61.50
53268;DHT22;39156;51.176;6.738;2023-03-02T04:06:47;0.40;61.20
53268;DHT22;39156;51.176;6.738;2023-03-02T04:09:13;0.30;61.20
53268;DHT22;39156;51.176;6.738;2023-03-02T04:11:41;0.40;61.30
53268;DHT22;39156;51.176;6.738;2023-03-02T04:14:08;0.30;61.30
53268;DHT22;39156;51.176;6.738;2023-03-02T04:16:34;0.30;61.30
53268;DHT22;39156;51.176;6.738;2023-03-02T04:19:01;0.20;61.40
53268;DHT22;39156;51.176;6.738;2023-03-02T04:21:28;0.20;61.70
53268;DHT22;39156;51.176;6.738;2023-03-02T04:23:54;0.30;61.80
53268;DHT22;39156;51.176;6.738;2023-03-02T04:26:20;0.20;61.80
53268;DHT22;39156;51.176;6.738;2023-03-02T04:28:46;0.20;61.80
53268;DHT22;39156;51.176;6.738;2023-03-02T04:31:15;0.20;61.90
53268;DHT22;39156;51.176;6.738;2023-03-02T04:33:41;0.20;62.00
53268;DHT22;39156;51.176;6.738;2023-03-02T04:36:07;0.10;62.00
53268;DHT22;39156;51.176;6.738;2023-03-02T04:38:33;0.20;62.10
53268;DHT22;39156;51.176;6.738;2023-03-02T04:40:58;0.10;61.90
53268;DHT22;39156;51.176;6.738;2023-03-02T04:43:25;-0.10;61.70
53268;DHT22;39156;51.176;6.738;2023-03-02T04:45:52;0.10;61.90
53268;DHT22;39156;51.176;6.738;2023-03-02T04:48:18;0.00;61.80
53268;DHT22;39156;51.176;6.738;2023-03-02T04:50:45;0.00;61.80
53268;DHT22;39156;51.176;6.738;2023-03-02T04:53:11;0.10;62.00
53268;DHT22;39156;51.176;6.738;2023-03-02T04:55:37;0.00;62.00
53268;DHT22;39156;51.176;6.738;2023-03-02T04:58:04;0.00;62.10
53268;DHT22;39156;51.176;6.738;2023-03-02T05:00:29;0.00;62.00
53268;DHT22;39156;51.176;6.738;2023-03-02T05:02:59;0.10;62.00
53268;DHT22;39156;51.176;6.738;2023-03-02T05:05:28;0.10;61.90
53268;DHT22;39156;51.176;6.738;2023-03-02T05:07:55;0.00;61.90
53268;DHT22;39156;51.176;6.738;2023-03-02T05:10:24;0.00;61.80
53268;DHT22;39156;51.176;6.738;2023-03-02T05:12:50;0.00;62.00
53268;DHT22;39156;51.176;6.738;2023-03-02T05:15:34;-0.20;61.80
53268;DHT22;39156;51.176;6.738;2023-03-02T05:18:05;0.10;62.40
53268;DHT22;39156;51.176;6.738;2023-03-02T05:20:32;-0.10;62.10
53268;DHT22;39156;51.176;6.738;2023-03-02T05:23:01;0.00;62.20
53268;DHT22;39156;51.176;6.738;2023-03-02T05:25:30;0.00;62.20
53268;DHT22;39156;51.176;6.738;2023-03-02T05:27:57;0.00;62.00
53268;DHT22;39156;51.176;6.738;2023-03-02T05:30:23;0.00;62.00
53268;DHT22;39156;51.176;6.738;2023-03-02T05:32:52;0.00;62.00
53268;DHT22;39156;51.176;6.738;2023-03-02T05:35:21;0.00;62.00
53268;DHT22;39156;51.176;6.738;2023-03-02T05:37:47;0.00;62.10
53268;DHT22;39156;51.176;6.738;2023-03-02T05:40:18;-0.20;61.90
53268;DHT22;39156;51.176;6.738;2023-03-02T05:42:45;-0.10;62.10
53268;DHT22;39156;51.176;6.738;2023-03-02T05:45:24;-0.10;61.80
53268;DHT22;39156;51.176;6.738;2023-03-02T05:47:51;0.00;61.90
53268;DHT22;39156;51.176;6.738;2023-03-02T05:50:18;-0.10;61.70
53268;DHT22;39156;51.176;6.738;2023-03-02T05:52:45;0.10;61.80
53268;DHT22;39156;51.176;6.738;2023-03-02T05:55:15;0.00;61.40
53268;DHT22;39156;51.176;6.738;2023-03-02T05:57:42;0.00;61.30
53268;DHT22;39156;51.176;6.738;2023-03-02T06:00:08;0.00;61.20
53268;DHT22;39156;51.176;6.738;2023-03-02T06:02:35;0.10;61.10
53268;DHT22;39156;51.176;6.738;2023-03-02T06:05:04;0.00;60.90
53268;DHT22;39156;51.176;6.738;2023-03-02T06:07:31;0.00;60.80
53268;DHT22;39156;51.176;6.738;2023-03-02T06:09:57;0.00;60.60
53268;DHT22;39156;51.176;6.738;2023-03-02T06:12:23;0.00;60.50
53268;DHT22;39156;51.176;6.738;2023-03-02T06:14:48;0.20;60.40
53268;DHT22;39156;51.176;6.738;2023-03-02T06:17:14;0.20;60.40
53268;DHT22;39156;51.176;6.738;2023-03-02T06:19:40;0.10;60.40
53268;DHT22;39156;51.176;6.738;2023-03-02T06:22:06;0.10;60.30
53268;DHT22;39156;51.176;6.738;2023-03-02T06:24:31;0.10;60.20
53268;DHT22;39156;51.176;6.738;2023-03-02T06:26:57;0.30;60.90
53268;DHT22;39156;51.176;6.738;2023-03-02T06:29:23;0.20;60.30
53268;DHT22;39156;51.176;6.738;2023-03-02T06:31:48;0.10;60.10
53268;DHT22;39156;51.176;6.738;2023-03-02T06:34:14;0.20;60.20
53268;DHT22;39156;51.176;6.738;2023-03-02T06:36:40;0.20;60.20
53268;DHT22;39156;51.176;6.738;2023-03-02T06:39:06;0.20;60.10
53268;DHT22;39156;51.176;6.738;2023-03-02T06:41:33;0.30;60.10
53268;DHT22;39156;51.176;6.738;2023-03-02T06:44:01;0.30;60.20
53268;DHT22;39156;51.176;6.738;2023-03-02T06:46:27;0.40;60.40
53268;DHT22;39156;51.176;6.738;2023-03-02T06:48:55;0.40;60.30
53268;DHT22;39156;51.176;6.738;2023-03-02T06:51:24;0.40;60.40
53268;DHT22;39156;51.176;6.738;2023-03-02T06:53:55;0.40;60.20
53268;DHT22;39156;51.176;6.738;2023-03-02T06:58:49;0.40;60.10
53268;DHT22;39156;51.176;6.738;2023-03-02T07:01:15;0.60;60.60
53268;DHT22;39156;51.176;6.738;2023-03-02T07:03:41;0.60;60.40
53268;DHT22;39156;51.176;6.738;2023-03-02T07:06:06;0.50;60.50
53268;DHT22;39156;51.176;6.738;2023-03-02T07:08:33;0.60;60.60
53268;DHT22;39156;51.176;6.738;2023-03-02T07:10:58;0.60;60.50
53268;DHT22;39156;51.176;6.738;2023-03-02T07:13:24;0.70;60.10
53268;DHT22;39156;51.176;6.738;2023-03-02T07:15:50;0.70;59.90
53268;DHT22;39156;51.176;6.738;2023-03-02T07:18:15;0.70;59.80
53268;DHT22;39156;51.176;6.738;2023-03-02T07:20:41;0.70;59.50
53268;DHT22;39156;51.176;6.738;2023-03-02T07:23:07;0.80;59.20
53268;DHT22;39156;51.176;6.738;2023-03-02T07:25:32;0.90;59.10
53268;DHT22;39156;51.176;6.738;2023-03-02T07:27:58;0.90;59.00
53268;DHT22;39156;51.176;6.738;2023-03-02T07:30:24;0.90;58.90
53268;DHT22;39156;51.176;6.738;2023-03-02T07:32:50;0.90;58.90
53268;DHT22;39156;51.176;6.738;2023-03-02T07:35:16;0.90;58.70
53268;DHT22;39156;51.176;6.738;2023-03-02T07:37:42;1.00;58.70
53268;DHT22;39156;51.176;6.738;2023-03-02T07:40:10;1.10;58.70
53268;DHT22;39156;51.176;6.738;2023-03-02T07:42:37;1.00;58.60
53268;DHT22;39156;51.176;6.738;2023-03-02T07:45:04;1.10;58.50
53268;DHT22;39156;51.176;6.738;2023-03-02T07:47:31;1.10;58.20
53268;DHT22;39156;51.176;6.738;2023-03-02T07:49:57;1.20;58.20
53268;DHT22;39156;51.176;6.738;2023-03-02T07:52:22;1.20;58.10
53268;DHT22;39156;51.176;6.738;2023-03-02T07:54:49;1.30;58.10
53268;DHT22;39156;51.176;6.738;2023-03-02T07:57:15;1.30;57.90
53268;DHT22;39156;51.176;6.738;2023-03-02T07:59:42;1.40;57.60
53268;DHT22;39156;51.176;6.738;2023-03-02T08:02:11;1.40;57.40
53268;DHT22;39156;51.176;6.738;2023-03-02T08:04:39;1.60;58.00
53268;DHT22;39156;51.176;6.738;2023-03-02T08:07:04;1.80;59.10
53268;DHT22;39156;51.176;6.738;2023-03-02T08:09:30;2.10;59.70
53268;DHT22;39156;51.176;6.738;2023-03-02T08:11:56;2.50;59.80
53268;DHT22;39156;51.176;6.738;2023-03-02T08:14:22;3.00;59.50
53268;DHT22;39156;51.176;6.738;2023-03-02T08:16:48;3.50;59.10
53268;DHT22;39156;51.176;6.738;2023-03-02T08:19:14;4.00;58.30
53268;DHT22;39156;51.176;6.738;2023-03-02T08:21:40;4.40;57.50
53268;DHT22;39156;51.176;6.738;2023-03-02T08:24:06;4.90;57.00
53268;DHT22;39156;51.176;6.738;2023-03-02T08:26:32;5.40;56.70
53268;DHT22;39156;51.176;6.738;2023-03-02T08:28:58;5.80;55.80
53268;DHT22;39156;51.176;6.738;2023-03-02T08:31:24;6.20;53.50
53268;DHT22;39156;51.176;6.738;2023-03-02T08:33:50;6.50;53.10
53268;DHT22;39156;51.176;6.738;2023-03-02T08:36:17;6.90;51.50
53268;DHT22;39156;51.176;6.738;2023-03-02T08:38:44;7.20;50.70
53268;DHT22;39156;51.176;6.738;2023-03-02T08:41:24;7.40;50.10
53268;DHT22;39156;51.176;6.738;2023-03-02T08:43:50;7.70;50.80
53268;DHT22;39156;51.176;6.738;2023-03-02T08:46:19;8.00;49.40
53268;DHT22;39156;51.176;6.738;2023-03-02T08:48:45;8.20;49.20
53268;DHT22;39156;51.176;6.738;2023-03-02T08:51:17;8.40;49.10
53268;DHT22;39156;51.176;6.738;2023-03-02T08:53:46;8.60;47.30
53268;DHT22;39156;51.176;6.738;2023-03-02T08:56:26;8.80;46.60
53268;DHT22;39156;51.176;6.738;2023-03-02T08:59:01;9.00;46.40
53268;DHT22;39156;51.176;6.738;2023-03-02T09:01:34;9.10;46.20
53268;DHT22;39156;51.176;6.738;2023-03-02T09:04:01;9.30;46.00
53268;DHT22;39156;51.176;6.738;2023-03-02T09:06:29;9.50;44.60
53268;DHT22;39156;51.176;6.738;2023-03-02T09:08:56;9.70;45.40
53268;DHT22;39156;51.176;6.738;2023-03-02T09:11:21;9.90;45.50
53268;DHT22;39156;51.176;6.738;2023-03-02T09:13:47;10.00;45.00
53268;DHT22;39156;51.176;6.738;2023-03-02T09:16:13;10.10;45.10
53268;DHT22;39156;51.176;6.738;2023-03-02T09:18:39;10.30;45.60
53268;DHT22;39156;51.176;6.738;2023-03-02T09:21:06;10.40;44.80
53268;DHT22;39156;51.176;6.738;2023-03-02T09:23:33;10.60;43.80
53268;DHT22;39156;51.176;6.738;2023-03-02T09:26:01;10.80;44.20
53268;DHT22;39156;51.176;6.738;2023-03-02T09:28:27;10.90;43.60
53268;DHT22;39156;51.176;6.738;2023-03-02T09:30:56;11.00;42.80
53268;DHT22;39156;51.176;6.738;2023-03-02T09:33:24;11.10;42.80
53268;DHT22;39156;51.176;6.738;2023-03-02T09:35:49;11.20;41.60
53268;DHT22;39156;51.176;6.738;2023-03-02T09:38:16;11.20;41.90
53268;DHT22;39156;51.176;6.738;2023-03-02T09:43:53;11.30;41.50
53268;DHT22;39156;51.176;6.738;2023-03-02T09:46:45;11.30;42.20
53268;DHT22;39156;51.176;6.738;2023-03-02T09:52:33;11.50;41.40
53268;DHT22;39156;51.176;6.738;2023-03-02T09:55:21;11.60;40.90
53268;DHT22;39156;51.176;6.738;2023-03-02T09:57:49;11.60;40.60
53268;DHT22;39156;51.176;6.738;2023-03-02T10:00:22;11.70;40.30
53268;DHT22;39156;51.176;6.738;2023-03-02T10:02:58;11.70;39.80
53268;DHT22;39156;51.176;6.738;2023-03-02T10:05:33;11.70;40.10
53268;DHT22;39156;51.176;6.738;2023-03-02T10:08:03;11.70;39.40
53268;DHT22;39156;51.176;6.738;2023-03-02T10:10:35;11.70;39.90
53268;DHT22;39156;51.176;6.738;2023-03-02T10:21:59;11.90;39.90
53268;DHT22;39156;51.176;6.738;2023-03-02T10:24:39;12.00;39.80
53268;DHT22;39156;51.176;6.738;2023-03-02T10:27:37;12.10;39.70
53268;DHT22;39156;51.176;6.738;2023-03-02T10:30:27;12.20;39.60
53268;DHT22;39156;51.176;6.738;2023-03-02T10:33:18;12.30;39.80
53268;DHT22;39156;51.176;6.738;2023-03-02T10:35:49;12.30;39.60
53268;DHT22;39156;51.176;6.738;2023-03-02T10:38:22;12.40;39.10
53268;DHT22;39156;51.176;6.738;2023-03-02T10:40:51;12.40;39.00
53268;DHT22;39156;51.176;6.738;2023-03-02T10:43:35;12.40;39.20
53268;DHT22;39156;51.176;6.738;2023-03-02T10:46:06;12.30;38.80
53268;DHT22;39156;51.176;6.738;2023-03-02T10:48:57;12.40;38.80
53268;DHT22;39156;51.176;6.738;2023-03-02T10:51:32;12.30;39.10
53268;DHT22;39156;51.176;6.738;2023-03-02T10:56:37;12.20;38.50
53268;DHT22;39156;51.176;6.738;2023-03-02T11:02:00;12.00;38.30
53268;DHT22;39156;51.176;6.738;2023-03-02T11:04:28;11.80;39.00
53268;DHT22;39156;51.176;6.738;2023-03-02T11:06:57;11.60;37.50
53268;DHT22;39156;51.176;6.738;2023-03-02T11:09:32;11.30;37.60
53268;DHT22;39156;51.176;6.738;2023-03-02T11:11:57;11.00;37.70
53268;DHT22;39156;51.176;6.738;2023-03-02T11:14:25;10.80;37.70
53268;DHT22;39156;51.176;6.738;2023-03-02T11:16:51;10.60;37.80
53268;DHT22;39156;51.176;6.738;2023-03-02T11:19:30;10.40;37.90
53268;DHT22;39156;51.176;6.738;2023-03-02T11:22:28;10.20;38.20
53268;DHT22;39156;51.176;6.738;2023-03-02T11:25:05;10.00;39.10
53268;DHT22;39156;51.176;6.738;2023-03-02T11:27:38;9.70;38.90
53268;DHT22;39156;51.176;6.738;2023-03-02T11:30:10;9.60;38.70
53268;DHT22;39156;51.176;6.738;2023-03-02T11:32:52;9.50;38.70
53268;DHT22;39156;51.176;6.738;2023-03-02T11:36:16;9.40;39.20
53268;DHT22;39156;51.176;6.738;2023-03-02T11:38:48;9.20;39.60
53268;DHT22;39156;51.176;6.738;2023-03-02T11:41:27;9.10;39.70
53268;DHT22;39156;51.176;6.738;2023-03-02T11:43:55;9.10;39.70
53268;DHT22;39156;51.176;6.738;2023-03-02T11:46:26;9.10;40.00
53268;DHT22;39156;51.176;6.738;2023-03-02T11:49:00;9.00;39.80
53268;DHT22;39156;51.176;6.738;2023-03-02T11:51:42;9.00;39.90
53268;DHT22;39156;51.176;6.738;2023-03-02T11:54:42;9.10;39.80
53268;DHT22;39156;51.176;6.738;2023-03-02T11:57:35;9.10;40.10
53268;DHT22;39156;51.176;6.738;2023-03-02T12:00:12;9.10;40.00
53268;DHT22;39156;51.176;6.738;2023-03-02T12:02:44;9.00;39.70
53268;DHT22;39156;51.176;6.738;2023-03-02T12:05:28;9.10;39.60
53268;DHT22;39156;51.176;6.738;2023-03-02T12:08:00;9.00;39.90
53268;DHT22;39156;51.176;6.738;2023-03-02T12:11:06;8.90;39.70
53268;DHT22;39156;51.176;6.738;2023-03-02T12:14:02;9.10;39.70
53268;DHT22;39156;51.176;6.738;2023-03-02T12:16:40;9.00;39.50
53268;DHT22;39156;51.176;6.738;2023-03-02T12:21:56;8.90;39.60
53268;DHT22;39156;51.176;6.738;2023-03-02T12:24:32;9.00;39.60
53268;DHT22;39156;51.176;6.738;2023-03-02T12:29:46;9.00;39.50
53268;DHT22;39156;51.176;6.738;2023-03-02T12:32:30;9.00;39.30
53268;DHT22;39156;51.176;6.738;2023-03-02T12:34:58;9.00;39.40
53268;DHT22;39156;51.176;6.738;2023-03-02T12:37:27;9.00;39.50
53268;DHT22;39156;51.176;6.738;2023-03-02T12:40:30;9.00;39.40
53268;DHT22;39156;51.176;6.738;2023-03-02T12:46:27;9.00;39.20
53268;DHT22;39156;51.176;6.738;2023-03-02T12:51:58;9.10;39.30
53268;DHT22;39156;51.176;6.738;2023-03-02T12:54:33;9.10;38.70
53268;DHT22;39156;51.176;6.738;2023-03-02T12:59:30;9.20;38.70
53268;DHT22;39156;51.176;6.738;2023-03-02T13:02:05;9.20;38.90
53268;DHT22;39156;51.176;6.738;2023-03-02T13:04:42;9.30;38.80
53268;DHT22;39156;51.176;6.738;2023-03-02T13:07:17;9.30;38.90
53268;DHT22;39156;51.176;6.738;2023-03-02T13:09:48;9.30;38.90
53268;DHT22;39156;51.176;6.738;2023-03-02T13:12:15;9.40;39.00
53268;DHT22;39156;51.176;6.738;2023-03-02T13:14:43;9.40;38.60
53268;DHT22;39156;51.176;6.738;2023-03-02T13:17:30;9.50;38.40
53268;DHT22;39156;51.176;6.738;2023-03-02T13:20:02;9.50;38.00
53268;DHT22;39156;51.176;6.738;2023-03-02T13:22:28;9.50;38.20
53268;DHT22;39156;51.176;6.738;2023-03-02T13:25:03;9.50;38.10
53268;DHT22;39156;51.176;6.738;2023-03-02T13:27:32;9.60;37.90
53268;DHT22;39156;51.176;6.738;2023-03-02T13:30:23;9.60;38.50
53268;DHT22;39156;51.176;6.738;2023-03-02T13:32:58;9.60;38.10
53268;DHT22;39156;51.176;6.738;2023-03-02T13:35:31;9.70;37.80
53268;DHT22;39156;51.176;6.738;2023-03-02T13:40:38;9.70;38.00
53268;DHT22;39156;51.176;6.738;2023-03-02T13:43:19;9.80;38.00
53268;DHT22;39156;51.176;6.738;2023-03-02T13:48:28;9.80;37.80
53268;DHT22;39156;51.176;6.738;2023-03-02T13:51:02;9.80;37.90
53268;DHT22;39156;51.176;6.738;2023-03-02T13:53:49;9.80;38.10
53268;DHT22;39156;51.176;6.738;2023-03-02T13:56:17;9.80;38.00
53268;DHT22;39156;51.176;6.738;2023-03-02T13:58:43;9.90;37.90
53268;DHT22;39156;51.176;6.738;2023-03-02T14:01:10;9.90;37.60
53268;DHT22;39156;51.176;6.738;2023-03-02T14:03:37;9.80;37.20
53268;DHT22;39156;51.176;6.738;2023-03-02T14:06:03;9.90;37.50
53268;DHT22;39156;51.176;6.738;2023-03-02T14:08:30;9.90;37.30
53268;DHT22;39156;51.176;6.738;2023-03-02T14:10:57;9.90;37.30
53268;DHT22;39156;51.176;6.738;2023-03-02T14:13:34;9.90;37.30
53268;DHT22;39156;51.176;6.738;2023-03-02T14:16:02;9.90;37.40
53268;DHT22;39156;51.176;6.738;2023-03-02T14:18:36;9.90;37.40
53268;DHT22;39156;51.176;6.738;2023-03-02T14:21:16;9.90;37.30
53268;DHT22;39156;51.176;6.738;2023-03-02T14:23:44;9.90;37.00
53268;DHT22;39156;51.176;6.738;2023-03-02T14:29:26;9.90;37.50
53268;DHT22;39156;51.176;6.738;2023-03-02T14:31:54;10.00;37.50
53268;DHT22;39156;51.176;6.738;2023-03-02T14:34:22;9.90;37.60
53268;DHT22;39156;51.176;6.738;2023-03-02T14:36:50;10.00;37.50
53268;DHT22;39156;51.176;6.738;2023-03-02T14:39:32;10.00;37.10
53268;DHT22;39156;51.176;6.738;2023-03-02T14:42:00;10.00;37.10
53268;DHT22;39156;51.176;6.738;2023-03-02T14:44:26;10.10;36.90
53268;DHT22;39156;51.176;6.738;2023-03-02T14:46:51;10.00;37.30
53268;DHT22;39156;51.176;6.738;2023-03-02T14:49:18;10.00;37.40
53268;DHT22;39156;51.176;6.738;2023-03-02T14:51:48;10.00;37.40
53268;DHT22;39156;51.176;6.738;2023-03-02T14:54:20;10.00;37.80
53268;DHT22;39156;51.176;6.738;2023-03-02T14:56:46;10.00;37.00
53268;DHT22;39156;51.176;6.738;2023-03-02T14:59:13;10.10;37.10
53268;DHT22;39156;51.176;6.738;2023-03-02T15:01:40;10.10;37.10
53268;DHT22;39156;51.176;6.738;2023-03-02T15:04:06;10.10;36.90
53268;DHT22;39156;51.176;6.738;2023-03-02T15:06:39;10.10;37.60
53268;DHT22;39156;51.176;6.738;2023-03-02T15:09:05;10.10;36.80
53268;DHT22;39156;51.176;6.738;2023-03-02T15:11:32;10.10;36.90
53268;DHT22;39156;51.176;6.738;2023-03-02T15:13:58;10.10;37.10
53268;DHT22;39156;51.176;6.738;2023-03-02T15:16:23;10.00;37.40
53268;DHT22;39156;51.176;6.738;2023-03-02T15:18:52;10.00;37.50
53268;DHT22;39156;51.176;6.738;2023-03-02T15:21:21;10.00;37.60
53268;DHT22;39156;51.176;6.738;2023-03-02T15:23:48;10.00;37.50
53268;DHT22;39156;51.176;6.738;2023-03-02T15:26:15;10.00;37.30
53268;DHT22;39156;51.176;6.738;2023-03-02T15:28:57;10.00;37.90
53268;DHT22;39156;51.176;6.738;2023-03-02T15:31:47;10.00;37.50
53268;DHT22;39156;51.176;6.738;2023-03-02T15:34:21;10.00;37.60
53268;DHT22;39156;51.176;6.738;2023-03-02T15:36:46;9.90;37.50
53268;DHT22;39156;51.176;6.738;2023-03-02T15:39:18;9.90;37.50
53268;DHT22;39156;51.176;6.738;2023-03-02T15:41:46;9.90;37.80
53268;DHT22;39156;51.176;6.738;2023-03-02T15:44:30;9.80;37.80
53268;DHT22;39156;51.176;6.738;2023-03-02T15:46:57;9.80;37.90
53268;DHT22;39156;51.176;6.738;2023-03-02T15:49:24;9.90;37.90
53268;DHT22;39156;51.176;6.738;2023-03-02T15:51:53;9.90;38.10
53268;DHT22;39156;51.176;6.738;2023-03-02T15:54:22;9.80;38.00
53268;DHT22;39156;51.176;6.738;2023-03-02T15:56:49;9.80;38.10
53268;DHT22;39156;51.176;6.738;2023-03-02T15:59:22;9.80;38.40
53268;DHT22;39156;51.176;6.738;2023-03-02T16:01:49;9.80;38.30
53268;DHT22;39156;51.176;6.738;2023-03-02T16:04:16;9.70;38.30
53268;DHT22;39156;51.176;6.738;2023-03-02T16:06:42;9.70;38.40
53268;DHT22;39156;51.176;6.738;2023-03-02T16:09:07;9.70;38.60
53268;DHT22;39156;51.176;6.738;2023-03-02T16:11:33;9.60;38.50
53268;DHT22;39156;51.176;6.738;2023-03-02T16:13:59;9.60;38.40
53268;DHT22;39156;51.176;6.738;2023-03-02T16:16:25;9.60;38.40
53268;DHT22;39156;51.176;6.738;2023-03-02T16:18:52;9.50;38.60
53268;DHT22;39156;51.176;6.738;2023-03-02T16:21:18;9.50;38.80
53268;DHT22;39156;51.176;6.738;2023-03-02T16:23:45;9.40;38.90
53268;DHT22;39156;51.176;6.738;2023-03-02T16:26:16;9.40;38.90
53268;DHT22;39156;51.176;6.738;2023-03-02T16:28:46;9.40;38.90
53268;DHT22;39156;51.176;6.738;2023-03-02T16:31:15;9.40;39.10
53268;DHT22;39156;51.176;6.738;2023-03-02T16:33:44;9.30;39.00
53268;DHT22;39156;51.176;6.738;2023-03-02T16:36:10;9.20;39.10
53268;DHT22;39156;51.176;6.738;2023-03-02T16:38:37;9.30;39.30
53268;DHT22;39156;51.176;6.738;2023-03-02T16:41:05;9.20;39.30
53268;DHT22;39156;51.176;6.738;2023-03-02T16:43:46;9.10;39.40
53268;DHT22;39156;51.176;6.738;2023-03-02T16:46:15;9.10;39.60
53268;DHT22;39156;51.176;6.738;2023-03-02T16:48:41;9.00;39.70
53268;DHT22;39156;51.176;6.738;2023-03-02T16:51:07;8.90;39.80
53268;DHT22;39156;51.176;6.738;2023-03-02T16:53:34;9.10;40.10
53268;DHT22;39156;51.176;6.738;2023-03-02T16:56:00;8.90;40.90